Time;durP1;ratioP1;P1;durP2;ratioP2;P2;SDS_P1;SDS_P2;PMS_P1;PMS_P2;Temp;Humidity;BMP_temperature;BMP_pressure;BME280_temperature;BME280_humidity;BME280_pressure;Samples;Min_cycle;Max_cycle;Signal;HPM_P1;HPM_P2
2021/11/19 00:01:29;;;;;;;12.35;5.38;;;4.60;99.90;;;;;;5066991;28;20169;-76
2021/11/19 00:03:55;;;;;;;11.07;5.32;;;4.50;99.90;;;;;;5067001;28;20204;-76
2021/11/19 00:06:21;;;;;;;14.90;5.95;;;4.50;99.90;;;;;;5048854;28;20216;-75
2021/11/19 00:08:50;;;;;;;11.32;6.00;;;4.40;99.90;;;;;;5047509;28;20193;-76
2021/11/19 00:11:21;;;;;;;14.63;6.65;;;4.40;99.90;;;;;;5050864;28;20170;-76
2021/11/19 00:13:47;;;;;;;16.85;5.43;;;4.40;99.90;;;;;;5052080;28;20180;-75
2021/11/19 00:16:14;;;;;;;19.02;6.10;;;4.40;99.90;;;;;;5050673;28;20201;-75
2021/11/19 00:18:41;;;;;;;20.42;9.07;;;4.50;99.90;;;;;;5050628;28;20184;-76
2021/11/19 00:21:08;;;;;;;25.40;9.85;;;4.30;99.90;;;;;;5052052;28;20165;-76
2021/11/19 00:23:35;;;;;;;22.63;9.45;;;4.30;99.90;;;;;;5051882;28;20161;-75
2021/11/19 00:26:02;;;;;;;19.30;10.23;;;4.20;99.90;;;;;;5050302;28;20638;-76
2021/11/19 00:28:28;;;;;;;29.75;10.13;;;4.20;99.90;;;;;;5064511;28;20180;-76
2021/11/19 00:30:54;;;;;;;26.50;10.85;;;4.20;99.90;;;;;;5065222;28;20185;-76
2021/11/19 00:33:20;;;;;;;20.92;10.52;;;4.20;99.90;;;;;;5050486;28;20168;-76
2021/11/19 00:35:47;;;;;;;20.45;10.75;;;4.20;99.90;;;;;;5069286;28;20704;-75
2021/11/19 00:38:17;;;;;;;19.02;9.55;;;4.20;99.90;;;;;;5070280;28;20232;-76
2021/11/19 00:40:48;;;;;;;22.70;11.98;;;4.20;99.90;;;;;;5070181;28;20198;-76
2021/11/19 00:43:14;;;;;;;36.85;12.30;;;4.20;99.90;;;;;;5070271;28;20169;-75
2021/11/19 00:45:40;;;;;;;18.65;10.32;;;4.20;99.90;;;;;;5069982;28;20208;-76
2021/11/19 00:48:07;;;;;;;21.92;10.00;;;4.20;99.90;;;;;;5070022;28;20197;-76
2021/11/19 00:50:59;;;;;;;21.48;10.95;;;4.30;99.90;;;;;;5070211;28;20172;-76
2021/11/19 00:53:26;;;;;;;20.42;10.05;;;4.40;99.90;;;;;;5070182;28;20176;-76
2021/11/19 00:55:52;;;;;;;24.60;9.90;;;4.40;99.90;;;;;;5069982;28;20224;-76
2021/11/19 00:58:20;;;;;;;25.30;11.18;;;4.50;99.90;;;;;;5070038;28;20188;-75
2021/11/19 01:00:50;;;;;;;19.80;10.38;;;4.50;99.90;;;;;;5071185;28;20184;-76
2021/11/19 01:03:19;;;;;;;20.35;10.60;;;4.60;99.90;;;;;;5071328;28;20161;-75
2021/11/19 01:05:46;;;;;;;21.05;9.27;;;4.60;99.90;;;;;;5069721;28;20204;-76
2021/11/19 01:08:12;;;;;;;21.38;8.98;;;4.60;99.90;;;;;;5071007;28;20192;-76
2021/11/19 01:10:40;;;;;;;18.55;9.50;;;4.60;99.90;;;;;;5071027;28;20220;-75
2021/11/19 01:13:07;;;;;;;29.63;10.05;;;4.70;99.90;;;;;;5069761;28;20720;-76
2021/11/19 01:15:45;;;;;;;18.25;9.32;;;4.80;99.90;;;;;;5069696;28;20169;-76
2021/11/19 01:18:17;;;;;;;20.02;10.60;;;4.80;99.90;;;;;;5069630;28;20232;-76
2021/11/19 01:20:48;;;;;;;26.98;11.43;;;4.70;99.90;;;;;;5068741;28;20248;-76
2021/11/19 01:23:17;;;;;;;26.58;11.68;;;4.70;99.90;;;;;;5069418;28;20192;-78
2021/11/19 01:25:46;;;;;;;21.70;11.20;;;4.50;99.90;;;;;;5069387;28;20212;-76
2021/11/19 01:28:13;;;;;;;25.83;11.43;;;4.50;99.90;;;;;;5058954;28;20229;-76
2021/11/19 01:30:47;;;;;;;18.73;10.75;;;4.40;99.90;;;;;;5050707;28;20166;-77
2021/11/19 01:33:14;;;;;;;26.00;10.98;;;4.50;99.90;;;;;;5049359;28;20165;-76
2021/11/19 01:35:41;;;;;;;24.75;10.75;;;4.60;99.90;;;;;;5067748;28;20171;-77
2021/11/19 01:38:07;;;;;;;18.35;10.57;;;4.60;99.90;;;;;;5070559;28;20196;-77
2021/11/19 01:40:37;;;;;;;17.67;9.77;;;4.60;99.90;;;;;;5070528;28;20165;-76
2021/11/19 01:43:08;;;;;;;20.33;8.73;;;4.60;99.90;;;;;;5069294;28;20183;-77
2021/11/19 01:45:39;;;;;;;23.50;9.55;;;4.60;99.90;;;;;;5070454;28;20204;-77
2021/11/19 01:48:09;;;;;;;20.33;8.98;;;4.60;99.90;;;;;;5069039;28;20196;-77
2021/11/19 01:50:50;;;;;;;20.75;9.20;;;4.70;99.90;;;;;;5070338;28;20153;-77
2021/11/19 01:53:24;;;;;;;27.55;10.32;;;4.60;99.90;;;;;;5068893;28;20193;-76
2021/11/19 01:56:40;;;;;;;27.15;11.07;;;4.60;99.90;;;;;;5068612;28;20223;-77
2021/11/19 01:59:18;;;;;;;21.15;9.10;;;4.50;99.90;;;;;;5069505;28;20192;-76
2021/11/19 02:01:57;;;;;;;19.10;10.13;;;4.50;99.90;;;;;;5070066;28;20160;-76
2021/11/19 02:04:28;;;;;;;19.42;8.93;;;4.50;99.90;;;;;;5070045;28;20172;-76
2021/11/19 02:07:02;;;;;;;21.95;10.60;;;4.60;99.90;;;;;;5068467;28;20238;-76
2021/11/19 02:09:42;;;;;;;21.45;9.60;;;4.60;99.90;;;;;;5068591;28;20172;-76
2021/11/19 02:12:25;;;;;;;25.13;9.77;;;4.50;99.90;;;;;;5069787;28;20176;-76
2021/11/19 02:15:01;;;;;;;18.67;8.85;;;4.50;99.90;;;;;;5069938;28;20157;-76
2021/11/19 02:17:27;;;;;;;20.02;8.40;;;4.60;99.90;;;;;;5068524;28;20203;-76
2021/11/19 02:20:03;;;;;;;19.13;9.75;;;4.60;99.90;;;;;;5069750;28;20181;-76
2021/11/19 02:22:42;;;;;;;16.95;8.45;;;4.60;99.90;;;;;;5069720;28;20152;-76
2021/11/19 02:25:16;;;;;;;25.88;11.05;;;4.60;99.90;;;;;;5068182;28;20196;-77
2021/11/19 02:28:02;;;;;;;23.80;10.88;;;4.50;99.90;;;;;;5063433;28;20193;-75
2021/11/19 02:30:51;;;;;;;21.50;10.88;;;4.30;99.90;;;;;;5048208;28;20169;-76
2021/11/19 02:33:18;;;;;;;24.67;11.48;;;4.30;99.90;;;;;;5048012;28;20197;-76
2021/11/19 02:35:52;;;;;;;25.05;11.70;;;4.20;99.90;;;;;;5047977;28;20184;-76
2021/11/19 02:38:21;;;;;;;38.78;13.15;;;4.20;99.90;;;;;;5047916;28;20244;-76
2021/11/19 02:40:50;;;;;;;37.78;12.32;;;4.10;99.90;;;;;;5048258;28;20180;-76
2021/11/19 02:43:44;;;;;;;31.80;12.75;;;4.10;99.90;;;;;;5049364;28;20193;-76
2021/11/19 02:46:19;;;;;;;27.67;11.85;;;4.00;99.90;;;;;;5049180;28;20196;-76
2021/11/19 02:48:46;;;;;;;24.73;11.32;;;4.00;99.90;;;;;;5049173;28;20217;-77
2021/11/19 02:51:15;;;;;;;26.23;10.90;;;4.00;99.90;;;;;;5049218;28;20692;-76
2021/11/19 02:53:44;;;;;;;23.45;11.23;;;4.10;99.90;;;;;;5049114;28;20193;-76
2021/11/19 02:56:10;;;;;;;22.42;11.13;;;4.20;99.90;;;;;;5047825;28;20255;-76
2021/11/19 02:58:42;;;;;;;23.63;10.93;;;4.20;99.90;;;;;;5049005;28;20173;-76
2021/11/19 03:01:22;;;;;;;22.60;11.82;;;4.20;99.90;;;;;;5047753;28;20181;-75
2021/11/19 03:04:32;;;;;;;30.75;12.45;;;4.20;99.90;;;;;;5047706;28;20200;-75
2021/11/19 03:06:59;;;;;;;25.40;11.40;;;4.30;99.90;;;;;;5047142;28;20221;-76
2021/11/19 03:09:32;;;;;;;28.67;11.35;;;4.20;99.90;;;;;;5048026;28;20169;-76
2021/11/19 03:11:59;;;;;;;28.38;10.95;;;4.10;99.90;;;;;;5047730;28;20200;-77
2021/11/19 03:14:26;;;;;;;27.67;12.70;;;4.00;99.90;;;;;;5047605;28;20200;-76
2021/11/19 03:16:54;;;;;;;36.65;11.30;;;4.00;99.90;;;;;;5048865;28;20177;-76
2021/11/19 03:19:21;;;;;;;19.35;10.40;;;4.10;99.90;;;;;;5047655;28;20208;-76
2021/11/19 03:21:47;;;;;;;19.85;10.90;;;4.10;99.90;;;;;;5047678;28;20548;-76
2021/11/19 03:24:16;;;;;;;21.60;11.55;;;4.20;99.90;;;;;;5047613;28;20197;-76
2021/11/19 03:26:42;;;;;;;23.05;10.63;;;4.20;99.90;;;;;;5047518;28;20205;-77
2021/11/19 03:29:10;;;;;;;34.47;11.65;;;4.30;99.90;;;;;;5047611;28;20169;-76
2021/11/19 03:31:37;;;;;;;25.05;9.65;;;4.40;99.90;;;;;;5048877;28;20220;-75
2021/11/19 03:34:03;;;;;;;30.50;12.50;;;4.40;99.90;;;;;;5048475;28;20743;-76
2021/11/19 03:36:30;;;;;;;27.15;12.38;;;4.40;99.90;;;;;;5048755;28;20240;-77
2021/11/19 03:38:59;;;;;;;32.03;11.40;;;4.20;99.90;;;;;;5048714;28;20161;-77
2021/11/19 03:41:29;;;;;;;25.75;11.70;;;4.20;99.90;;;;;;5048507;28;20203;-77
2021/11/19 03:44:11;;;;;;;20.70;12.07;;;4.10;99.90;;;;;;5047967;28;20200;-75
2021/11/19 03:46:42;;;;;;;29.00;11.90;;;4.20;99.90;;;;;;5056163;28;20214;-76
2021/11/19 03:49:08;;;;;;;24.55;11.27;;;4.20;99.90;;;;;;5072740;28;20160;-75
2021/11/19 03:51:48;;;;;;;25.38;11.27;;;4.30;99.90;;;;;;5072492;28;20196;-76
2021/11/19 03:54:16;;;;;;;22.17;10.43;;;4.40;99.90;;;;;;5072349;28;20160;-76
2021/11/19 03:56:43;;;;;;;20.35;10.02;;;4.40;99.90;;;;;;5072225;28;20258;-75
2021/11/19 03:59:11;;;;;;;26.20;12.30;;;4.50;99.90;;;;;;5072407;28;20161;-77
2021/11/19 04:01:40;;;;;;;23.92;11.00;;;4.40;99.90;;;;;;5072348;28;20156;-75
2021/11/19 04:04:07;;;;;;;23.05;11.27;;;4.30;99.90;;;;;;5072453;28;20160;-75
2021/11/19 04:06:34;;;;;;;22.13;11.25;;;4.30;99.90;;;;;;5072306;28;20200;-75
2021/11/19 04:09:00;;;;;;;22.15;10.35;;;4.10;99.90;;;;;;5072016;28;20165;-76
2021/11/19 04:11:26;;;;;;;21.35;10.23;;;4.00;99.90;;;;;;5072075;28;20157;-75
2021/11/19 04:13:53;;;;;;;25.05;11.45;;;4.10;99.90;;;;;;5072043;28;20179;-77
2021/11/19 04:16:27;;;;;;;22.27;11.02;;;4.10;99.90;;;;;;5070537;28;20196;-77
2021/11/19 04:18:53;;;;;;;21.02;10.93;;;4.10;99.90;;;;;;5071859;28;20168;-77
2021/11/19 04:21:20;;;;;;;25.85;9.93;;;4.10;99.90;;;;;;5070661;28;20210;-77
2021/11/19 04:23:49;;;;;;;30.98;10.80;;;4.20;99.90;;;;;;5071717;28;20165;-77
2021/11/19 04:26:16;;;;;;;18.27;10.48;;;4.20;99.90;;;;;;5071685;28;20188;-77
2021/11/19 04:28:43;;;;;;;16.60;9.80;;;4.20;99.90;;;;;;5070555;28;20248;-77
2021/11/19 04:31:10;;;;;;;20.65;9.57;;;4.20;99.90;;;;;;5072004;28;20157;-77
2021/11/19 04:33:37;;;;;;;21.40;9.93;;;4.20;99.90;;;;;;5070415;28;20172;-76
2021/11/19 04:36:05;;;;;;;24.17;9.90;;;4.20;99.90;;;;;;5070367;28;20263;-76
2021/11/19 04:38:31;;;;;;;36.50;10.90;;;4.10;99.90;;;;;;5071604;28;20179;-77
2021/11/19 04:40:57;;;;;;;24.75;11.05;;;4.00;99.90;;;;;;5071216;28;20164;-76
2021/11/19 04:43:25;;;;;;;27.63;11.93;;;4.00;99.90;;;;;;5070201;28;20176;-77
2021/11/19 04:45:52;;;;;;;24.10;10.82;;;4.00;99.90;;;;;;5069728;28;20216;-76
2021/11/19 04:48:19;;;;;;;24.85;10.80;;;4.00;99.90;;;;;;5069910;28;20665;-76
2021/11/19 04:50:48;;;;;;;21.30;10.75;;;4.00;99.90;;;;;;5070047;28;20176;-76
2021/11/19 04:53:17;;;;;;;21.20;9.48;;;4.00;99.90;;;;;;5071104;28;20187;-76
2021/11/19 04:55:44;;;;;;;23.98;10.55;;;4.00;99.90;;;;;;5069764;28;20163;-76
2021/11/19 04:58:10;;;;;;;19.48;9.68;;;4.00;99.90;;;;;;5069588;28;20215;-76
2021/11/19 05:00:50;;;;;;;22.10;10.63;;;4.00;99.90;;;;;;5069705;28;20602;-76
2021/11/19 05:03:16;;;;;;;21.02;10.50;;;4.00;99.90;;;;;;5069613;28;20198;-76
2021/11/19 05:05:45;;;;;;;19.70;9.95;;;4.00;99.90;;;;;;5069786;28;20208;-76
2021/11/19 05:08:10;;;;;;;21.90;10.00;;;4.00;99.90;;;;;;5070845;28;20291;-75
2021/11/19 05:10:39;;;;;;;20.73;9.25;;;4.00;99.90;;;;;;5069443;28;20236;-76
2021/11/19 05:13:06;;;;;;;22.95;9.68;;;4.00;99.90;;;;;;5069663;28;20168;-76
2021/11/19 05:15:34;;;;;;;21.92;9.57;;;4.00;99.90;;;;;;5069397;28;20188;-77
2021/11/19 05:18:01;;;;;;;26.42;10.52;;;4.00;99.90;;;;;;5070537;28;20211;-76
2021/11/19 05:20:27;;;;;;;30.08;12.63;;;4.00;99.90;;;;;;5069453;28;20172;-77
2021/11/19 05:22:54;;;;;;;21.83;9.52;;;4.00;99.90;;;;;;5069102;28;20179;-75
2021/11/19 05:25:28;;;;;;;20.08;11.38;;;4.10;99.90;;;;;;5070355;28;20185;-76
2021/11/19 05:27:54;;;;;;;22.42;10.57;;;4.00;99.90;;;;;;5070371;28;20219;-75
2021/11/19 05:30:21;;;;;;;18.20;9.77;;;4.00;99.90;;;;;;5070410;28;20285;-76
2021/11/19 05:32:47;;;;;;;18.33;10.25;;;4.00;99.90;;;;;;5070629;28;20248;-77
2021/11/19 05:35:15;;;;;;;18.08;9.13;;;4.00;99.90;;;;;;5070469;28;20157;-76
2021/11/19 05:37:42;;;;;;;22.92;10.25;;;4.00;99.90;;;;;;5069007;28;20204;-76
2021/11/19 05:40:12;;;;;;;19.60;8.68;;;3.90;99.90;;;;;;5068816;28;20184;-77
2021/11/19 05:42:39;;;;;;;19.25;9.38;;;3.90;99.90;;;;;;5070349;28;20153;-77
2021/11/19 05:45:06;;;;;;;18.73;8.43;;;3.80;99.90;;;;;;5068698;28;20231;-77
2021/11/19 05:47:33;;;;;;;28.50;9.70;;;3.90;99.90;;;;;;5068948;28;20201;-76
2021/11/19 05:50:00;;;;;;;22.13;8.82;;;3.90;99.90;;;;;;5068885;28;20237;-77
2021/11/19 05:52:27;;;;;;;23.23;9.57;;;3.90;99.90;;;;;;5070024;28;20149;-76
2021/11/19 05:54:54;;;;;;;26.10;9.93;;;3.80;99.90;;;;;;5069935;28;20165;-76
2021/11/19 05:57:20;;;;;;;18.58;9.15;;;3.80;99.90;;;;;;5068403;28;20224;-76
2021/11/19 05:59:45;;;;;;;28.85;9.02;;;3.80;99.90;;;;;;5069988;28;20164;-76
2021/11/19 06:02:16;;;;;;;24.23;9.48;;;3.80;99.90;;;;;;5068854;28;20235;-77
2021/11/19 06:04:42;;;;;;;21.92;10.68;;;3.70;99.90;;;;;;5068270;28;20175;-78
2021/11/19 06:07:08;;;;;;;22.83;8.55;;;3.60;99.90;;;;;;5068970;28;20192;-77
2021/11/19 06:09:36;;;;;;;18.70;9.93;;;3.70;99.90;;;;;;5068373;28;20240;-77
2021/11/19 06:12:07;;;;;;;22.23;10.85;;;3.60;99.90;;;;;;5069654;28;20169;-77
2021/11/19 06:15:02;;;;;;;20.50;9.98;;;3.40;99.90;;;;;;5067943;28;20176;-79
2021/11/19 06:17:38;;;;;;;25.33;10.02;;;3.40;99.90;;;;;;5069247;28;20209;-78
2021/11/19 06:20:16;;;;;;;21.20;10.27;;;3.50;99.90;;;;;;5067936;28;20176;-79
2021/11/19 06:22:49;;;;;;;21.60;10.57;;;3.50;99.90;;;;;;5068331;28;20200;-78
2021/11/19 06:25:21;;;;;;;18.67;9.48;;;3.50;99.90;;;;;;5067667;28;20200;-80
2021/11/19 06:27:49;;;;;;;23.42;9.57;;;3.50;99.90;;;;;;5068098;28;20223;-79
2021/11/19 06:30:16;;;;;;;25.58;10.65;;;3.50;99.90;;;;;;5067976;28;20183;-79
2021/11/19 06:32:43;;;;;;;21.27;8.93;;;3.60;99.90;;;;;;5067843;28;20327;-79
2021/11/19 06:35:10;;;;;;;25.25;10.35;;;3.60;99.90;;;;;;5068111;28;20357;-79
2021/11/19 06:37:36;;;;;;;16.73;8.30;;;3.60;99.90;;;;;;5067804;28;20290;-78
2021/11/19 06:40:05;;;;;;;23.05;7.65;;;3.60;99.90;;;;;;5069390;28;20165;-79
2021/11/19 06:42:31;;;;;;;17.13;7.47;;;3.60;99.90;;;;;;5067830;28;20199;-79
2021/11/19 06:44:56;;;;;;;14.63;8.00;;;3.70;99.90;;;;;;5068762;28;20165;-78
2021/11/19 06:47:22;;;;;;;17.65;7.00;;;3.80;99.90;;;;;;5068125;28;20192;-78
2021/11/19 06:49:48;;;;;;;24.55;7.85;;;3.90;99.90;;;;;;5067953;28;20165;-79
2021/11/19 06:52:14;;;;;;;19.88;7.95;;;4.00;99.90;;;;;;5069322;28;20246;-79
2021/11/19 06:54:41;;;;;;;11.50;6.18;;;4.00;99.90;;;;;;5068196;28;20175;-80
2021/11/19 06:57:08;;;;;;;18.08;8.60;;;4.10;99.90;;;;;;5067214;28;20240;-78
2021/11/19 06:59:35;;;;;;;12.88;6.22;;;4.20;99.90;;;;;;5067454;28;20173;-79
2021/11/19 07:02:01;;;;;;;14.85;6.18;;;4.20;99.90;;;;;;5068966;28;20157;-78
2021/11/19 07:04:27;;;;;;;27.30;6.82;;;4.40;99.90;;;;;;5067548;28;20606;-78
2021/11/19 07:06:53;;;;;;;17.23;6.72;;;4.40;99.90;;;;;;5067225;28;20275;-79
2021/11/19 07:09:19;;;;;;;17.10;7.45;;;4.50;99.90;;;;;;5066036;28;20200;-76
2021/11/19 07:11:46;;;;;;;17.30;6.85;;;4.70;99.90;;;;;;5067490;28;20222;-75
2021/11/19 07:14:13;;;;;;;14.63;6.25;;;4.70;99.90;;;;;;5066326;28;20367;-76
2021/11/19 07:16:40;;;;;;;10.85;6.15;;;5.00;99.90;;;;;;5067622;28;20194;-77
2021/11/19 07:19:07;;;;;;;16.10;7.10;;;5.00;99.90;;;;;;5066740;28;20176;-77
2021/11/19 07:21:35;;;;;;;14.50;6.47;;;5.10;99.90;;;;;;5066411;28;20244;-82
2021/11/19 07:24:01;;;;;;;15.50;6.60;;;5.10;99.90;;;;;;5066876;28;20199;-86
2021/11/19 07:26:29;;;;;;;17.02;6.97;;;5.20;99.90;;;;;;5068484;28;20184;-84
2021/11/19 07:28:57;;;;;;;11.77;7.22;;;5.40;99.90;;;;;;5068505;28;20157;-83
2021/11/19 07:31:23;;;;;;;16.52;7.15;;;5.40;99.90;;;;;;5067186;28;20176;-84
2021/11/19 07:33:49;;;;;;;15.57;7.28;;;5.50;99.90;;;;;;5065977;28;20203;-84
2021/11/19 07:36:18;;;;;;;14.80;6.25;;;5.60;99.90;;;;;;5066882;28;20160;-83
2021/11/19 07:38:45;;;;;;;17.05;7.43;;;5.80;99.90;;;;;;5068417;28;20255;-82
2021/11/19 07:41:14;;;;;;;19.58;6.97;;;5.80;99.90;;;;;;5067188;28;20207;-82
2021/11/19 07:43:40;;;;;;;13.85;7.20;;;5.90;99.90;;;;;;5068495;28;20245;-82
2021/11/19 07:46:08;;;;;;;16.15;7.68;;;6.30;99.90;;;;;;5066952;28;20207;-81
2021/11/19 07:48:37;;;;;;;14.85;6.88;;;6.20;99.90;;;;;;5067371;28;20156;-81
2021/11/19 07:51:11;;;;;;;18.88;7.45;;;6.60;99.90;;;;;;5068291;28;20161;-81
2021/11/19 07:53:38;;;;;;;16.15;6.78;;;6.50;99.90;;;;;;5067353;28;20177;-80
2021/11/19 07:56:05;;;;;;;14.90;8.00;;;6.60;99.90;;;;;;5067019;28;20287;-80
2021/11/19 07:58:32;;;;;;;17.98;7.60;;;6.60;99.90;;;;;;5067284;28;20545;-80
2021/11/19 08:00:59;;;;;;;15.10;7.05;;;6.80;99.90;;;;;;5066892;28;20193;-80
2021/11/19 08:03:26;;;;;;;16.77;7.95;;;6.90;99.90;;;;;;5067043;28;20173;-80
2021/11/19 08:05:55;;;;;;;25.65;9.60;;;7.00;99.90;;;;;;5068551;28;20184;-81
2021/11/19 08:08:23;;;;;;;25.35;9.00;;;6.90;99.90;;;;;;5068213;28;20153;-81
2021/11/19 08:10:50;;;;;;;19.17;8.50;;;7.30;99.90;;;;;;5066872;28;20173;-81
2021/11/19 08:13:16;;;;;;;20.88;9.52;;;7.80;99.90;;;;;;5068109;28;20219;-81
2021/11/19 08:15:43;;;;;;;20.33;8.57;;;8.10;99.90;;;;;;5066653;28;20176;-81
2021/11/19 08:18:22;;;;;;;19.25;8.45;;;8.50;99.90;;;;;;5066759;28;20226;-81
2021/11/19 08:20:51;;;;;;;17.92;8.85;;;8.90;99.90;;;;;;5068224;28;20164;-81
2021/11/19 08:23:23;;;;;;;16.73;9.30;;;9.40;99.90;;;;;;5066897;28;20224;-81
2021/11/19 08:25:50;;;;;;;15.13;8.93;;;10.00;99.90;;;;;;5066803;28;20200;-82
2021/11/19 08:28:18;;;;;;;20.73;9.02;;;10.10;99.90;;;;;;5068014;28;20184;-82
2021/11/19 08:30:48;;;;;;;14.15;8.48;;;10.40;99.90;;;;;;5069859;28;20164;-81
2021/11/19 08:33:15;;;;;;;14.20;8.65;;;10.80;99.90;;;;;;5071832;28;20189;-81
2021/11/19 08:35:42;;;;;;;17.70;7.90;;;10.90;99.90;;;;;;5071608;28;20242;-81
2021/11/19 08:38:16;;;;;;;17.42;8.13;;;11.50;99.90;;;;;;5071495;28;20622;-81
2021/11/19 08:40:45;;;;;;;18.85;7.68;;;12.30;99.90;;;;;;5070113;28;20618;-81
2021/11/19 08:43:15;;;;;;;10.18;6.75;;;13.00;99.90;;;;;;5071477;28;20255;-81
2021/11/19 08:45:42;;;;;;;14.00;8.05;;;13.30;99.90;;;;;;5071633;28;20196;-83
2021/11/19 08:48:09;;;;;;;10.43;6.22;;;13.20;99.90;;;;;;5070394;28;20585;-82
2021/11/19 08:50:39;;;;;;;11.85;6.43;;;13.10;99.90;;;;;;5071527;28;20168;-82
2021/11/19 08:53:08;;;;;;;13.52;6.90;;;13.10;99.90;;;;;;5071375;28;20239;-83
2021/11/19 08:55:39;;;;;;;11.18;6.18;;;13.00;99.90;;;;;;5070923;28;20153;-81
2021/11/19 08:58:05;;;;;;;10.25;5.88;;;12.40;99.90;;;;;;5070190;28;20187;-80
2021/11/19 09:00:35;;;;;;;8.35;5.03;;;11.50;99.90;;;;;;5067851;28;20241;-81
2021/11/19 09:03:07;;;;;;;9.80;5.40;;;10.70;99.90;;;;;;5062475;28;20228;-79
2021/11/19 09:05:34;;;;;;;8.80;5.28;;;10.40;99.90;;;;;;5049735;28;20201;-80
2021/11/19 09:08:01;;;;;;;8.93;4.72;;;10.80;99.90;;;;;;5051029;28;20168;-80
2021/11/19 09:10:27;;;;;;;5.75;3.78;;;10.50;99.90;;;;;;5049625;28;20184;-80
2021/11/19 09:12:53;;;;;;;7.55;4.90;;;10.00;99.90;;;;;;5049682;28;20229;-80
2021/11/19 09:15:21;;;;;;;6.07;4.70;;;10.20;99.90;;;;;;5049533;28;20170;-80
2021/11/19 09:18:00;;;;;;;7.70;4.78;;;10.20;99.90;;;;;;5049739;28;20189;-79
2021/11/19 09:20:40;;;;;;;8.07;5.47;;;9.90;99.90;;;;;;5055095;28;20188;-80
2021/11/19 09:23:18;;;;;;;9.65;4.82;;;9.50;99.90;;;;;;5061523;28;20204;-80
2021/11/19 09:25:49;;;;;;;11.32;5.90;;;9.70;99.90;;;;;;5069232;28;20549;-79
2021/11/19 09:28:18;;;;;;;14.30;8.00;;;9.60;99.90;;;;;;5070377;28;20184;-79
2021/11/19 09:30:46;;;;;;;16.23;8.25;;;9.60;99.90;;;;;;5070666;28;20158;-79
2021/11/19 09:33:16;;;;;;;15.18;8.75;;;9.50;99.90;;;;;;5070364;28;20188;-81
2021/11/19 09:35:43;;;;;;;18.42;7.82;;;9.70;99.90;;;;;;5069425;28;20361;-80
2021/11/19 09:38:12;;;;;;;13.77;7.15;;;10.40;99.90;;;;;;5070276;28;20211;-80
2021/11/19 09:40:56;;;;;;;10.00;6.78;;;11.30;99.90;;;;;;5070424;28;20165;-80
2021/11/19 09:43:36;;;;;;;12.70;6.15;;;11.20;99.90;;;;;;5068363;28;20183;-80
2021/11/19 09:46:31;;;;;;;13.95;5.60;;;12.60;99.90;;;;;;5069084;28;20199;-80
2021/11/19 09:49:19;;;;;;;8.93;5.80;;;12.30;99.90;;;;;;5068904;28;20259;-80
2021/11/19 09:51:50;;;;;;;14.93;5.10;;;13.30;99.90;;;;;;5065992;28;20201;-78
2021/11/19 09:54:44;;;;;;;12.02;4.57;;;14.30;99.90;;;;;;5069070;28;20240;-80
2021/11/19 09:57:41;;;;;;;10.90;5.63;;;14.90;99.90;;;;;;5068479;28;20235;-78
2021/11/19 10:00:31;;;;;;;10.02;4.68;;;15.90;99.90;;;;;;5068885;28;20195;-79
2021/11/19 10:03:22;;;;;;;10.93;5.15;;;14.70;99.90;;;;;;5053748;28;20201;-80
2021/11/19 10:06:09;;;;;;;11.25;5.50;;;14.10;99.90;;;;;;5048774;28;20228;-80
2021/11/19 10:08:55;;;;;;;9.07;4.95;;;13.80;99.90;;;;;;5048428;28;20165;-79
2021/11/19 10:11:52;;;;;;;9.02;4.88;;;13.10;99.90;;;;;;5049792;28;20215;-80
2021/11/19 10:14:58;;;;;;;8.93;4.55;;;14.10;99.90;;;;;;5048453;28;20188;-79
2021/11/19 10:17:59;;;;;;;8.20;4.05;;;14.10;99.90;;;;;;5049416;28;20188;-80
2021/11/19 10:20:41;;;;;;;8.57;4.78;;;13.70;99.90;;;;;;5048410;28;20231;-81
2021/11/19 10:23:29;;;;;;;11.57;4.65;;;13.80;99.90;;;;;;5049379;28;20256;-81
2021/11/19 10:26:03;;;;;;;12.15;5.07;;;15.30;99.90;;;;;;5048666;28;20228;-83
2021/11/19 10:28:45;;;;;;;7.13;4.13;;;16.50;99.90;;;;;;5048467;28;20165;-81
2021/11/19 10:31:20;;;;;;;8.45;4.80;;;17.30;99.90;;;;;;5048064;28;20196;-81
2021/11/19 10:34:07;;;;;;;7.22;4.20;;;17.30;99.90;;;;;;5067545;28;20309;-78
2021/11/19 10:36:43;;;;;;;9.60;4.60;;;15.20;99.90;;;;;;5068008;28;20171;-79
2021/11/19 10:39:30;;;;;;;8.00;4.28;;;14.30;99.90;;;;;;5069272;28;20156;-79
2021/11/19 10:42:35;;;;;;;9.43;5.10;;;13.40;99.90;;;;;;5063371;28;20202;-80
2021/11/19 10:45:16;;;;;;;13.23;4.80;;;13.30;99.90;;;;;;5061652;28;20175;-80
2021/11/19 10:48:06;;;;;;;5.95;3.80;;;14.00;99.90;;;;;;5050474;28;20181;-80
2021/11/19 10:51:10;;;;;;;4.80;4.05;;;13.30;99.90;;;;;;5054325;28;20176;-80
2021/11/19 10:54:03;;;;;;;6.13;4.13;;;13.50;99.90;;;;;;5066820;28;20168;-81
2021/11/19 10:56:56;;;;;;;9.95;4.40;;;14.00;99.90;;;;;;5068660;28;20220;-80
2021/11/19 10:59:36;;;;;;;5.57;3.72;;;13.90;99.90;;;;;;5061003;28;20254;-79
2021/11/19 11:02:07;;;;;;;10.30;4.05;;;14.70;99.90;;;;;;5063783;28;20213;-80
2021/11/19 11:04:37;;;;;;;4.78;3.38;;;13.80;99.90;;;;;;5048808;28;20219;-80
2021/11/19 11:07:14;;;;;;;7.90;3.78;;;13.90;99.90;;;;;;5047541;28;20231;-80
2021/11/19 11:09:59;;;;;;;5.95;3.70;;;14.40;99.90;;;;;;5048633;28;20161;-80
2021/11/19 11:12:46;;;;;;;8.48;4.40;;;14.00;99.90;;;;;;5064000;28;20193;-81
2021/11/19 11:15:25;;;;;;;8.05;3.63;;;14.10;99.90;;;;;;5047406;28;20169;-80
2021/11/19 11:18:29;;;;;;;5.57;3.25;;;13.90;99.90;;;;;;5066422;28;20169;-85
2021/11/19 11:21:06;;;;;;;4.82;3.53;;;13.90;99.90;;;;;;5067017;28;20184;-83
2021/11/19 11:23:38;;;;;;;6.50;3.38;;;13.30;99.90;;;;;;5049635;28;20195;-82
2021/11/19 11:26:18;;;;;;;5.65;3.42;;;13.70;99.90;;;;;;5066470;28;20220;-83
2021/11/19 11:29:08;;;;;;;6.47;3.65;;;13.40;99.90;;;;;;5066571;28;20172;-84
2021/11/19 11:32:12;;;;;;;4.20;3.13;;;13.40;99.90;;;;;;5066216;28;20195;-81
2021/11/19 11:34:43;;;;;;;5.53;3.70;;;12.90;99.90;;;;;;4987525;28;20187;-81
2021/11/19 11:37:10;;;;;;;5.38;3.35;;;13.10;99.90;;;;;;4987383;28;20231;-81
2021/11/19 11:39:55;;;;;;;5.38;3.67;;;12.70;99.90;;;;;;4986791;28;20199;-79
2021/11/19 11:42:26;;;;;;;5.60;2.92;;;12.40;99.90;;;;;;4987692;28;20199;-79
2021/11/19 11:44:55;;;;;;;6.28;3.08;;;12.60;99.90;;;;;;4973885;28;20232;-78
2021/11/19 11:47:53;;;;;;;7.80;3.30;;;13.10;99.90;;;;;;4987619;28;20179;-82
2021/11/19 11:50:32;;;;;;;4.43;2.35;;;13.70;99.90;;;;;;4974890;28;20202;-82
2021/11/19 11:53:04;;;;;;;5.55;2.80;;;14.00;99.90;;;;;;5007477;28;20198;-82
2021/11/19 11:55:46;;;;;;;4.88;2.63;;;14.30;99.90;;;;;;5022122;28;20197;-82
2021/11/19 11:58:35;;;;;;;5.18;2.75;;;14.40;99.90;;;;;;5027207;28;20240;-82
2021/11/19 12:01:16;;;;;;;4.93;2.65;;;14.20;99.90;;;;;;5026971;28;20170;-81
2021/11/19 12:03:51;;;;;;;4.18;2.55;;;13.50;99.90;;;;;;5010599;28;20174;-82
2021/11/19 12:06:24;;;;;;;4.30;2.50;;;13.30;99.90;;;;;;5028989;28;20193;-82
2021/11/19 12:09:40;;;;;;;5.03;2.85;;;13.60;99.90;;;;;;5034216;28;20197;-82
2021/11/19 12:12:11;;;;;;;6.85;2.47;;;14.00;99.90;;;;;;5048285;28;20190;-83
2021/11/19 12:14:41;;;;;;;5.22;2.47;;;13.80;99.90;;;;;;5051232;28;20227;-82
2021/11/19 12:17:44;;;;;;;6.18;2.17;;;13.50;99.90;;;;;;5052881;28;20167;-83
2021/11/19 12:20:46;;;;;;;4.00;1.85;;;13.20;99.90;;;;;;5052344;28;20203;-83
2021/11/19 12:23:49;;;;;;;6.15;1.80;;;13.00;99.90;;;;;;5051993;28;20173;-82
2021/11/19 12:26:32;;;;;;;3.08;1.90;;;13.00;99.90;;;;;;5053506;28;20189;-82
2021/11/19 12:29:32;;;;;;;6.35;2.25;;;13.20;99.90;;;;;;5052650;28;20253;-81
2021/11/19 12:32:10;;;;;;;3.50;2.35;;;13.30;99.90;;;;;;5052863;28;20213;-84
2021/11/19 12:35:09;;;;;;;3.83;1.73;;;13.20;99.90;;;;;;5050710;28;20215;-83
2021/11/19 12:37:41;;;;;;;5.53;2.20;;;13.00;99.90;;;;;;5051822;28;20203;-83
2021/11/19 12:40:22;;;;;;;3.40;1.70;;;12.80;99.90;;;;;;5050322;28;20219;-81
2021/11/19 12:43:27;;;;;;;2.40;1.60;;;12.90;99.90;;;;;;5050896;28;20310;-82
2021/11/19 12:46:22;;;;;;;2.28;1.58;;;12.90;99.90;;;;;;5051069;28;20212;-80
2021/11/19 12:48:53;;;;;;;4.43;2.17;;;13.20;99.90;;;;;;5050803;28;20193;-81
2021/11/19 12:51:31;;;;;;;5.00;2.35;;;13.20;99.90;;;;;;5066542;28;20160;-81
2021/11/19 12:54:14;;;;;;;3.25;1.80;;;13.30;99.90;;;;;;5071203;28;20176;-81
2021/11/19 12:57:20;;;;;;;2.88;1.55;;;13.50;99.90;;;;;;5070267;28;20233;-82
2021/11/19 12:59:58;;;;;;;2.42;1.88;;;13.50;99.90;;;;;;5070857;28;20569;-81
2021/11/19 13:02:46;;;;;;;1.90;1.50;;;13.50;99.90;;;;;;5072320;28;20179;-82
2021/11/19 13:05:21;;;;;;;2.38;1.33;;;13.30;99.90;;;;;;5070948;28;20181;-81
2021/11/19 13:08:33;;;;;;;2.60;1.73;;;13.30;99.90;;;;;;5070580;28;20184;-81
2021/11/19 13:11:29;;;;;;;3.28;2.00;;;13.30;99.90;;;;;;5056943;28;20185;-82
2021/11/19 13:14:17;;;;;;;5.57;1.90;;;13.30;99.90;;;;;;5049525;28;20172;-81
2021/11/19 13:16:53;;;;;;;2.63;1.77;;;13.30;99.90;;;;;;5055448;28;20230;-81